Time;durP1;ratioP1;P1;durP2;ratioP2;P2;SDS_P1;SDS_P2;PMS_P1;PMS_P2;Temp;Humidity;BMP_temperature;BMP_pressure;BME280_temperature;BME280_humidity;BME280_pressure;Samples;Min_cycle;Max_cycle;Signal;HPM_P1;HPM_P2
2024/04/04 00:00:57;;;;;;;11.90;3.47;;;;;;;10.58;100.00;100115.63;5048932;28;20469;-68
2024/04/04 00:03:22;;;;;;;20.93;4.80;;;;;;;9.71;100.00;99979.41;5048981;28;20191;-68
2024/04/04 00:05:51;;;;;;;19.27;3.27;;;;;;;9.96;100.00;100035.75;5048980;28;20233;-68
2024/04/04 00:08:17;;;;;;;16.23;3.20;;;;;;;10.41;100.00;100085.81;5048506;28;20191;-68
2024/04/04 00:10:42;;;;;;;14.03;3.10;;;;;;;10.12;100.00;100045.13;5047953;28;20438;-68
2024/04/04 00:13:08;;;;;;;21.77;3.50;;;;;;;10.55;100.00;100114.19;5048596;28;20211;-68
2024/04/04 00:15:41;;;;;;;14.87;3.10;;;;;;;10.56;100.00;100105.13;5047881;28;20211;-68
2024/04/04 00:18:06;;;;;;;11.97;2.93;;;;;;;10.44;100.00;100101.47;5028363;28;20187;-68
2024/04/04 00:20:36;;;;;;;16.80;3.20;;;;;;;10.07;100.00;100039.63;5048346;28;20553;-68
2024/04/04 00:23:02;;;;;;;19.17;3.97;;;;;;;10.42;100.00;100082.13;5046650;28;21379;-68
2024/04/04 00:25:27;;;;;;;18.70;3.03;;;;;;;10.36;100.00;100073.06;5046923;28;20434;-68
2024/04/04 00:27:53;;;;;;;21.20;3.50;;;;;;;10.38;100.00;100107.69;5046937;28;20191;-68
2024/04/04 00:30:19;;;;;;;17.93;3.40;;;;;;;10.40;100.00;100092.22;5048647;28;20640;-68
2024/04/04 00:32:45;;;;;;;23.33;3.47;;;;;;;10.44;100.00;100106.84;5045275;28;20219;-68
2024/04/04 00:35:10;;;;;;;18.50;3.57;;;;;;;9.95;100.00;100033.28;5049873;28;20241;-68
2024/04/04 00:37:36;;;;;;;18.60;3.73;;;;;;;10.45;100.00;100097.78;5047470;28;20442;-68
2024/04/04 00:40:01;;;;;;;17.90;3.30;;;;;;;10.52;100.00;100111.13;5047449;28;20239;-68
2024/04/04 00:42:26;;;;;;;21.53;3.70;;;;;;;10.23;100.00;100062.38;5048080;28;20298;-68
2024/04/04 00:44:52;;;;;;;20.80;3.93;;;;;;;10.21;100.00;100063.63;5048746;28;20184;-68
2024/04/04 00:47:17;;;;;;;16.57;4.00;;;;;;;10.01;100.00;100040.47;5046515;28;20203;-68
2024/04/04 00:49:43;;;;;;;13.17;2.77;;;;;;;9.90;100.00;100036.63;5047274;28;20186;-68
2024/04/04 00:52:09;;;;;;;24.03;3.97;;;;;;;10.15;100.00;100092.97;5046816;28;20238;-68
2024/04/04 00:54:42;;;;;;;22.63;3.33;;;;;;;10.37;100.00;100148.94;5048275;28;20190;-68
2024/04/04 00:57:08;;;;;;;16.27;3.33;;;;;;;9.98;100.00;100099.00;5026891;28;20808;-68
2024/04/04 00:59:38;;;;;;;15.40;3.83;;;;;;;10.29;100.00;100195.59;5048306;28;20477;-68
2024/04/04 01:02:04;;;;;;;16.60;3.73;;;;;;;10.33;100.00;100217.44;5024490;28;20451;-68
2024/04/04 01:04:29;;;;;;;30.27;4.13;;;;;;;10.20;100.00;100210.22;5046691;28;20825;-68
2024/04/04 01:06:55;;;;;;;17.13;4.10;;;;;;;10.37;100.00;100248.97;5027665;28;20818;-68
2024/04/04 01:09:21;;;;;;;21.30;4.03;;;;;;;9.87;100.00;100194.25;5048197;28;20275;-68
2024/04/04 01:11:46;;;;;;;16.83;4.23;;;;;;;10.40;100.00;100258.44;5047825;28;20457;-68
2024/04/04 01:14:12;;;;;;;21.27;3.90;;;;;;;10.44;100.00;100272.25;5045176;28;20184;-68
2024/04/04 01:16:37;;;;;;;19.77;3.60;;;;;;;10.10;100.00;100191.94;5047327;28;20250;-68
2024/04/04 01:19:04;;;;;;;17.10;3.77;;;;;;;10.43;100.00;100244.63;5047836;28;20285;-68
2024/04/04 01:21:29;;;;;;;16.83;3.83;;;;;;;9.96;100.00;100179.59;5046540;28;20203;-68
2024/04/04 01:23:54;;;;;;;25.13;3.33;;;;;;;10.30;100.00;100223.19;5047938;28;20525;-69
2024/04/04 01:26:20;;;;;;;10.97;2.57;;;;;;;9.90;100.00;100145.63;5047942;28;20193;-68
2024/04/04 01:28:45;;;;;;;20.70;3.90;;;;;;;9.99;100.00;100178.38;5046766;28;20209;-68
2024/04/04 01:31:11;;;;;;;20.60;3.83;;;;;;;10.39;100.00;100259.50;5047864;28;20215;-68
2024/04/04 01:33:36;;;;;;;21.87;3.80;;;;;;;10.42;100.00;100259.06;5031386;28;20187;-68
2024/04/04 01:36:02;;;;;;;16.23;3.13;;;;;;;9.93;100.00;100194.25;5047096;28;20186;-68
2024/04/04 01:38:28;;;;;;;21.27;3.47;;;;;;;10.27;100.00;100258.47;5046860;28;20542;-68
2024/04/04 01:40:54;;;;;;;20.07;3.97;;;;;;;9.94;100.00;100206.59;5028022;28;20566;-68
2024/04/04 01:43:19;;;;;;;21.67;4.30;;;;;;;10.31;100.00;100265.06;5027075;28;20667;-68
2024/04/04 01:45:45;;;;;;;14.27;3.57;;;;;;;10.28;100.00;100269.00;5046320;28;20450;-68
2024/04/04 01:48:10;;;;;;;15.00;3.70;;;;;;;9.74;100.00;100187.88;5027529;28;20176;-68
2024/04/04 01:50:36;;;;;;;21.07;3.63;;;;;;;9.86;100.00;100201.44;5046965;28;20187;-68
2024/04/04 01:53:01;;;;;;;18.27;3.90;;;;;;;9.98;100.00;100228.44;5044975;28;20215;-68
2024/04/04 01:55:29;;;;;;;19.57;4.23;;;;;;;10.31;100.00;100257.84;5046401;28;20199;-68
2024/04/04 01:57:55;;;;;;;19.00;4.60;;;;;;;10.23;100.00;100236.59;5046811;28;20645;-68
2024/04/04 02:00:21;;;;;;;17.30;3.70;;;;;;;9.67;100.00;100151.44;5046750;28;21074;-68
2024/04/04 02:02:46;;;;;;;14.40;3.10;;;;;;;9.89;100.00;100185.00;5045925;28;20449;-68
2024/04/04 02:05:12;;;;;;;15.90;3.57;;;;;;;10.16;100.00;100230.47;5028773;28;20187;-68
2024/04/04 02:07:37;;;;;;;19.30;3.90;;;;;;;9.74;100.00;100169.13;5044477;28;20278;-68
2024/04/04 02:10:05;;;;;;;22.80;4.40;;;;;;;10.06;100.00;100214.81;5045388;28;20579;-68
2024/04/04 02:12:31;;;;;;;18.30;3.53;;;;;;;10.07;100.00;100218.31;5045365;28;20211;-68
2024/04/04 02:14:56;;;;;;;17.50;3.93;;;;;;;9.33;100.00;100089.13;5046811;28;20521;-68
2024/04/04 02:17:23;;;;;;;17.77;3.50;;;;;;;9.47;100.00;100122.03;5047173;28;20440;-68
2024/04/04 02:19:49;;;;;;;15.50;3.57;;;;;;;9.96;100.00;100209.06;5044061;28;20593;-69
2024/04/04 02:22:15;;;;;;;19.47;4.00;;;;;;;9.93;100.00;100213.00;5046937;28;20961;-68
2024/04/04 02:24:40;;;;;;;17.60;4.00;;;;;;;9.49;100.00;100150.25;5045979;28;20438;-68
2024/04/04 02:27:06;;;;;;;24.43;5.23;;;;;;;9.99;100.00;100216.69;5045225;28;20206;-68
2024/04/04 02:29:31;;;;;;;22.00;3.97;;;;;;;9.91;100.00;100207.00;5047623;28;20536;-68
2024/04/04 02:31:56;;;;;;;18.53;3.47;;;;;;;9.20;100.00;100098.00;5045478;28;20282;-68
2024/04/04 02:34:22;;;;;;;11.67;3.10;;;;;;;8.85;100.00;100029.69;5046122;28;20644;-68
2024/04/04 02:36:47;;;;;;;22.23;3.93;;;;;;;9.80;100.00;100180.03;5025188;28;20292;-68
2024/04/04 02:39:13;;;;;;;13.30;3.37;;;;;;;9.46;100.00;100117.72;5045507;28;20593;-68
2024/04/04 02:41:40;;;;;;;25.23;3.50;;;;;;;9.22;100.00;100079.88;5026715;28;20806;-68
2024/04/04 02:44:06;;;;;;;19.53;5.13;;;;;;;9.52;100.00;100119.56;5045664;28;20873;-68
2024/04/04 02:46:31;;;;;;;12.47;3.20;;;;;;;9.56;100.00;100126.13;5047657;28;20532;-69
2024/04/04 02:48:57;;;;;;;15.50;3.53;;;;;;;8.97;100.00;100036.09;5027967;28;20242;-68
2024/04/04 02:51:22;;;;;;;17.30;3.60;;;;;;;9.01;100.00;100069.41;5026690;28;20200;-68
2024/04/04 02:53:48;;;;;;;16.20;4.10;;;;;;;9.62;100.00;100141.34;5026698;28;20577;-67
2024/04/04 02:56:13;;;;;;;13.93;3.70;;;;;;;9.33;100.00;100104.34;5044449;28;20270;-68
2024/04/04 02:58:39;;;;;;;20.87;3.60;;;;;;;9.56;100.00;100123.47;5027735;28;20584;-68
2024/04/04 03:01:04;;;;;;;19.10;3.73;;;;;;;8.80;100.00;100009.78;5046625;28;20613;-68
2024/04/04 03:03:30;;;;;;;15.53;3.27;;;;;;;9.63;100.00;100139.50;5047043;28;20187;-68
2024/04/04 03:05:55;;;;;;;19.70;3.70;;;;;;;9.62;100.00;100162.78;5048616;28;20186;-68
2024/04/04 03:08:21;;;;;;;15.80;3.20;;;;;;;8.85;100.00;100041.22;5050530;28;20590;-68
2024/04/04 03:10:46;;;;;;;14.90;3.63;;;;;;;9.41;100.00;100136.25;5029182;28;20212;-69
2024/04/04 03:13:12;;;;;;;14.80;3.20;;;;;;;9.21;100.00;100088.13;5034113;28;20203;-67
2024/04/04 03:15:37;;;;;;;18.40;3.20;;;;;;;9.33;100.00;100123.09;5027872;28;20667;-68
2024/04/04 03:18:03;;;;;;;14.70;3.20;;;;;;;9.09;100.00;100077.22;5050960;28;20203;-68
2024/04/04 03:20:29;;;;;;;12.87;3.03;;;;;;;9.31;100.00;100128.63;5027556;28;20213;-68
2024/04/04 03:22:54;;;;;;;20.60;3.27;;;;;;;8.40;100.00;100000.94;5049425;28;20627;-67
2024/04/04 03:25:20;;;;;;;17.77;4.33;;;;;;;8.20;100.00;99970.69;5048533;28;20273;-68
2024/04/04 03:27:45;;;;;;;23.00;3.00;;;;;;;8.56;100.00;100043.31;5048943;28;20254;-68
2024/04/04 03:30:11;;;;;;;18.40;3.03;;;;;;;8.77;100.00;100069.00;5050314;28;20808;-68
2024/04/04 03:32:36;;;;;;;19.20;3.00;;;;;;;9.30;100.00;100121.66;5049625;28;20207;-68
2024/04/04 03:35:02;;;;;;;20.17;3.00;;;;;;;9.13;100.00;100089.16;5049166;28;20907;-68
2024/04/04 03:37:27;;;;;;;19.57;3.33;;;;;;;9.15;100.00;100086.28;5049431;28;20333;-68
2024/04/04 03:39:54;;;;;;;16.33;2.43;;;;;;;9.18;100.00;100102.72;5032756;28;20271;-68
2024/04/04 03:42:19;;;;;;;17.03;3.10;;;;;;;9.05;100.00;100097.38;5048098;28;20207;-68
2024/04/04 03:44:45;;;;;;;17.60;4.03;;;;;;;9.19;100.00;100107.03;5027902;28;20565;-68
2024/04/04 03:47:10;;;;;;;19.93;3.27;;;;;;;8.19;100.00;99967.19;5047821;28;20195;-67
2024/04/04 03:49:36;;;;;;;18.50;2.87;;;;;;;8.72;100.00;100052.75;5050373;28;20184;-67
2024/04/04 03:52:01;;;;;;;13.97;2.90;;;;;;;8.91;100.00;100071.66;5048024;28;20212;-67
2024/04/04 03:54:26;;;;;;;12.80;2.07;;;;;;;9.04;100.00;100106.44;5050063;28;20215;-67
2024/04/04 03:56:52;;;;;;;12.17;2.63;;;;;;;9.03;100.00;100105.63;5048969;28;20201;-67
2024/04/04 03:59:17;;;;;;;18.70;3.27;;;;;;;8.78;100.00;100080.53;5049089;28;20239;-67
2024/04/04 04:01:43;;;;;;;14.87;2.87;;;;;;;8.48;100.00;100048.03;5048996;28;20216;-68
2024/04/04 04:04:08;;;;;;;13.63;2.77;;;;;;;8.55;100.00;100060.34;5048199;28;20190;-68
2024/04/04 04:06:34;;;;;;;11.17;2.80;;;;;;;7.92;100.00;99971.66;5047171;28;20197;-70
2024/04/04 04:08:59;;;;;;;12.27;2.83;;;;;;;8.77;100.00;100100.28;5048466;28;20640;-70
2024/04/04 04:11:24;;;;;;;16.43;3.07;;;;;;;8.41;100.00;100050.66;5047652;28;20218;-70
2024/04/04 04:13:50;;;;;;;23.00;4.27;;;;;;;8.81;100.00;100098.81;5047251;28;20287;-70
2024/04/04 04:16:16;;;;;;;12.73;2.57;;;;;;;8.71;100.00;100077.03;5032061;28;20176;-70
2024/04/04 04:18:42;;;;;;;16.57;2.70;;;;;;;7.71;100.00;99908.56;5031102;28;20644;-70
2024/04/04 04:21:24;;;;;;;15.23;2.40;;;;;;;8.75;100.00;100084.44;5044490;28;21032;-70
2024/04/04 04:23:51;;;;;;;15.10;2.93;;;;;;;8.10;100.00;99992.44;5028435;28;21124;-70
2024/04/04 04:26:17;;;;;;;16.17;3.60;;;;;;;8.62;100.00;100081.75;5049627;28;20439;-71
2024/04/04 04:28:44;;;;;;;15.23;2.37;;;;;;;8.30;100.00;100008.50;5048874;28;20426;-70
2024/04/04 04:31:30;;;;;;;15.27;2.77;;;;;;;7.79;100.00;99873.69;5047376;28;20449;-70
2024/04/04 04:33:57;;;;;;;16.17;3.43;;;;;;;8.08;100.00;99925.06;5046824;28;20434;-70
2024/04/04 04:36:24;;;;;;;13.87;2.90;;;;;;;7.77;100.00;99854.38;5028923;28;20526;-70
2024/04/04 04:38:50;;;;;;;11.83;2.23;;;;;;;8.64;100.00;100002.16;5029340;28;21530;-70
2024/04/04 04:41:16;;;;;;;14.90;3.40;;;;;;;8.49;100.00;99993.53;5048255;28;20453;-70
2024/04/04 04:43:46;;;;;;;14.13;2.20;;;;;;;8.09;100.00;99930.19;5048581;28;20211;-70
2024/04/04 04:46:20;;;;;;;10.63;2.40;;;;;;;8.74;100.00;100033.84;5032205;28;20264;-70
2024/04/04 04:48:46;;;;;;;13.37;2.70;;;;;;;7.96;100.00;99921.38;5047077;28;20446;-70
2024/04/04 04:51:12;;;;;;;13.10;2.13;;;;;;;8.40;100.00;99970.72;5046551;28;20431;-70
2024/04/04 04:53:39;;;;;;;12.13;2.33;;;;;;;8.65;100.00;100030.56;5046310;28;20432;-70
2024/04/04 04:56:05;;;;;;;12.70;2.40;;;;;;;7.93;100.00;99926.06;5046436;28;20237;-70
2024/04/04 04:58:31;;;;;;;16.33;2.70;;;;;;;8.58;100.00;100019.84;5029459;28;20483;-70
2024/04/04 05:00:57;;;;;;;9.93;2.40;;;;;;;7.72;100.00;99910.22;5042427;28;20479;-70
2024/04/04 05:03:23;;;;;;;11.63;2.27;;;;;;;7.76;100.00;99881.28;5046584;28;20204;-71
2024/04/04 05:05:52;;;;;;;13.17;3.80;;;;;;;7.84;100.00;99908.63;5027304;28;20201;-70
2024/04/04 05:08:18;;;;;;;12.10;1.87;;;;;;;8.64;100.00;100017.38;5047376;28;20788;-70
2024/04/04 05:10:45;;;;;;;15.20;3.43;;;;;;;7.80;100.00;99895.84;5045794;28;20509;-70
2024/04/04 05:13:10;;;;;;;8.87;1.73;;;;;;;8.80;100.00;100025.81;5027301;28;20544;-70
2024/04/04 05:15:48;;;;;;;19.13;2.70;;;;;;;8.73;100.00;100008.94;5030453;28;20552;-70
2024/04/04 05:18:14;;;;;;;9.57;1.90;;;;;;;8.68;100.00;99992.72;5049237;28;20182;-70
2024/04/04 05:20:42;;;;;;;11.50;2.43;;;;;;;7.96;100.00;99868.78;5045503;28;20841;-70
2024/04/04 05:23:07;;;;;;;9.83;2.13;;;;;;;7.95;100.00;99876.97;5045171;28;20211;-70
2024/04/04 05:25:32;;;;;;;12.63;2.67;;;;;;;7.81;100.00;99849.44;5045823;28;20465;-70
2024/04/04 05:27:58;;;;;;;14.97;3.00;;;;;;;8.57;100.00;99972.78;5046196;28;20194;-70
2024/04/04 05:30:23;;;;;;;14.23;3.40;;;;;;;8.32;100.00;99904.91;5047636;28;20187;-70
2024/04/04 05:32:49;;;;;;;17.20;3.50;;;;;;;8.72;100.00;99980.56;5028441;28;20199;-70
2024/04/04 05:35:14;;;;;;;11.60;3.40;;;;;;;8.09;100.00;99874.09;5028661;28;20187;-70
2024/04/04 05:37:40;;;;;;;14.93;2.73;;;;;;;8.80;100.00;99992.91;5046918;28;20759;-70
2024/04/04 05:40:07;;;;;;;9.90;2.10;;;;;;;8.14;100.00;99895.69;5047161;28;20562;-70
2024/04/04 05:42:33;;;;;;;14.60;2.10;;;;;;;8.12;100.00;99876.34;5047066;28;20204;-71
2024/04/04 05:44:59;;;;;;;11.57;2.27;;;;;;;8.14;100.00;99873.50;5040872;28;20445;-70
2024/04/04 05:47:24;;;;;;;9.80;2.10;;;;;;;8.46;100.00;99929.81;5047229;28;20572;-70
2024/04/04 05:49:50;;;;;;;13.60;2.40;;;;;;;8.02;100.00;99840.44;5030802;28;20434;-71
2024/04/04 05:52:15;;;;;;;10.97;2.13;;;;;;;8.36;100.00;99901.63;5028484;28;20341;-70
2024/04/04 05:54:40;;;;;;;11.00;1.83;;;;;;;7.97;100.00;99858.91;5045846;28;20557;-70
2024/04/04 05:57:06;;;;;;;9.10;2.13;;;;;;;8.94;100.00;100001.72;5045746;28;20190;-70
2024/04/04 05:59:32;;;;;;;7.57;1.57;;;;;;;8.85;100.00;99993.09;5028865;28;20220;-70
2024/04/04 06:01:58;;;;;;;12.93;2.20;;;;;;;8.88;100.00;99987.34;5047044;28;20204;-70
2024/04/04 06:04:24;;;;;;;7.90;1.80;;;;;;;8.81;100.00;100003.38;5046429;28;20479;-70
2024/04/04 06:06:50;;;;;;;10.97;1.80;;;;;;;8.54;100.00;99938.44;5025737;28;20555;-70
2024/04/04 06:09:15;;;;;;;7.60;1.60;;;;;;;8.90;100.00;99992.47;5026360;28;20426;-70
2024/04/04 06:11:40;;;;;;;13.50;2.10;;;;;;;8.90;100.00;99997.81;5046649;28;20214;-70
2024/04/04 06:14:06;;;;;;;11.17;1.90;;;;;;;8.93;100.00;100000.06;5043014;28;20200;-70
2024/04/04 06:16:32;;;;;;;9.47;1.60;;;;;;;8.42;100.00;99886.66;5045955;28;20183;-70
2024/04/04 06:18:57;;;;;;;7.53;1.60;;;;;;;8.24;100.00;99879.22;5028569;28;20180;-70
2024/04/04 06:21:23;;;;;;;8.77;1.50;;;;;;;7.97;100.00;99822.34;5047761;28;20537;-70
2024/04/04 06:23:48;;;;;;;8.17;1.80;;;;;;;8.92;100.00;99972.50;5026469;28;20318;-70
2024/04/04 06:26:14;;;;;;;13.23;2.20;;;;;;;8.58;100.00;99918.28;5043987;28;20183;-70
2024/04/04 06:28:39;;;;;;;6.57;1.43;;;;;;;8.60;100.00;99920.75;5044732;28;20197;-70
2024/04/04 06:31:05;;;;;;;8.07;1.60;;;;;;;8.76;100.00;99927.50;5027314;28;20186;-70
2024/04/04 06:33:30;;;;;;;10.10;1.70;;;;;;;9.00;100.00;99980.31;5024149;28;20192;-70
2024/04/04 06:35:56;;;;;;;9.00;1.60;;;;;;;8.79;100.00;99911.03;5044863;28;20175;-70
2024/04/04 06:38:21;;;;;;;7.83;1.77;;;;;;;8.34;100.00;99854.78;5047519;28;20195;-71
2024/04/04 06:40:47;;;;;;;6.70;1.80;;;;;;;8.20;100.00;99821.09;5047318;28;20227;-70
2024/04/04 06:43:13;;;;;;;8.83;1.77;;;;;;;9.07;100.00;99948.19;5049467;28;20199;-70
2024/04/04 06:45:38;;;;;;;7.13;1.60;;;;;;;8.78;100.00;99910.22;5049518;28;20197;-70
2024/04/04 06:48:04;;;;;;;14.50;1.70;;;;;;;8.17;100.00;99795.59;5051018;28;20202;-70
2024/04/04 06:50:29;;;;;;;8.77;1.80;;;;;;;9.04;100.00;99951.28;5034030;28;20183;-70
2024/04/04 06:52:55;;;;;;;10.93;1.57;;;;;;;9.04;100.00;99952.09;5048998;28;20214;-70
2024/04/04 06:55:20;;;;;;;11.80;1.83;;;;;;;8.99;100.00;99932.38;5033660;28;20625;-70
2024/04/04 06:57:46;;;;;;;8.67;1.80;;;;;;;8.31;100.00;99841.81;5049732;28;20190;-70
2024/04/04 07:00:13;;;;;;;6.67;1.83;;;;;;;8.94;100.00;99932.16;5032392;28;20688;-70
2024/04/04 07:02:38;;;;;;;6.13;1.73;;;;;;;9.09;100.00;99951.50;5049673;28;20980;-70
2024/04/04 07:05:08;;;;;;;8.70;1.93;;;;;;;8.88;100.00;99923.16;5031737;28;20441;-71
2024/04/04 07:07:34;;;;;;;7.37;2.27;;;;;;;8.66;100.00;99871.78;5029864;28;20190;-70
2024/04/04 07:10:00;;;;;;;10.50;2.70;;;;;;;8.66;100.00;99890.50;5031170;28;20442;-70
2024/04/04 07:12:26;;;;;;;15.43;2.77;;;;;;;8.48;100.00;99808.31;5048957;28;20223;-70
2024/04/04 07:14:51;;;;;;;12.50;2.07;;;;;;;9.07;100.00;99908.06;5048641;28;20504;-70
2024/04/04 07:17:16;;;;;;;8.83;2.03;;;;;;;8.41;100.00;99796.81;5032183;28;20188;-70
2024/04/04 07:19:42;;;;;;;10.57;2.80;;;;;;;8.91;100.00;99871.09;5049877;28;20203;-70
2024/04/04 07:22:07;;;;;;;8.13;2.33;;;;;;;9.22;100.00;99902.44;5050031;28;20212;-70
2024/04/04 07:24:33;;;;;;;12.37;2.30;;;;;;;8.57;100.00;99791.00;5049737;28;20190;-71
2024/04/04 07:26:58;;;;;;;7.97;2.60;;;;;;;9.27;100.00;99895.44;5046703;28;20180;-69
2024/04/04 07:29:24;;;;;;;11.97;2.47;;;;;;;8.48;100.00;99788.78;5050186;28;20179;-68
2024/04/04 07:31:49;;;;;;;10.53;1.97;;;;;;;8.25;100.00;99767.88;5048297;28;20214;-68
2024/04/04 07:34:15;;;;;;;8.87;2.03;;;;;;;8.73;100.00;99832.47;5049197;28;20633;-68
2024/04/04 07:36:41;;;;;;;8.63;2.43;;;;;;;8.44;100.00;99777.69;5033419;28;20215;-68
2024/04/04 07:39:09;;;;;;;9.40;2.30;;;;;;;9.09;100.00;99899.84;5028106;28;20446;-68
2024/04/04 07:41:35;;;;;;;6.67;1.87;;;;;;;9.01;100.00;99900.88;5032129;28;20758;-68
2024/04/04 07:44:01;;;;;;;8.07;2.57;;;;;;;9.07;100.00;99928.66;5047472;28;20442;-68
2024/04/04 07:46:27;;;;;;;9.13;3.00;;;;;;;9.03;100.00;99934.44;5027317;28;20184;-68
2024/04/04 07:48:53;;;;;;;8.77;2.70;;;;;;;9.12;100.00;99977.81;5049319;28;20438;-68
2024/04/04 07:51:19;;;;;;;10.03;3.00;;;;;;;8.78;100.00;99939.63;5028888;28;20200;-68
2024/04/04 07:53:44;;;;;;;12.67;3.60;;;;;;;8.35;100.00;99889.28;5049172;28;20434;-68
2024/04/04 07:56:16;;;;;;;10.63;4.33;;;;;;;8.36;100.00;99936.38;5050634;28;20305;-68
2024/04/04 07:58:43;;;;;;;11.87;3.90;;;;;;;8.98;100.00;99930.75;5031480;28;20286;-69
2024/04/04 08:01:09;;;;;;;9.53;3.90;;;;;;;8.29;100.00;99929.38;5029901;28;20470;-68
2024/04/04 08:03:34;;;;;;;9.80;4.00;;;;;;;8.30;100.00;99993.31;5031884;28;20448;-69
2024/04/04 08:05:59;;;;;;;12.20;4.60;;;;;;;8.41;100.00;100066.72;5049245;28;20271;-68
2024/04/04 08:08:25;;;;;;;11.57;4.20;;;;;;;9.41;100.00;100262.06;5050945;28;20196;-68
2024/04/04 08:10:51;;;;;;;10.77;4.87;;;;;;;9.32;100.00;100348.94;5050225;28;20258;-68
2024/04/04 08:13:17;;;;;;;7.97;4.77;;;;;;;9.07;100.00;100424.38;5031842;28;20233;-68
2024/04/04 08:15:42;;;;;;;13.90;5.20;;;;;;;8.32;100.00;100330.56;5048530;28;20430;-68
2024/04/04 08:18:08;;;;;;;12.00;5.40;;;;;;;9.33;100.00;100533.41;5049612;28;20539;-68
2024/04/04 08:20:33;;;;;;;14.43;6.07;;;;;;;8.48;100.00;100417.69;5049488;28;20203;-68
2024/04/04 08:22:59;;;;;;;10.40;5.30;;;;;;;9.16;100.00;100550.81;5028609;28;20218;-68
2024/04/04 08:25:26;;;;;;;10.23;5.20;;;;;;;9.49;100.00;100650.06;5030193;28;20195;-68
2024/04/04 08:27:51;;;;;;;12.40;5.83;;;;;;;8.63;100.00;100556.59;5027451;28;20437;-69
2024/04/04 08:30:16;;;;;;;12.17;7.10;;;;;;;8.91;100.00;100628.00;5049113;28;20427;-69
2024/04/04 08:32:42;;;;;;;11.77;6.50;;;;;;;8.81;100.00;100633.69;5048520;28;20265;-69
2024/04/04 08:35:09;;;;;;;11.50;6.60;;;;;;;8.87;100.00;100669.53;5032042;28;20183;-69
2024/04/04 08:37:35;;;;;;;8.20;6.10;;;;;;;8.65;100.00;100647.31;5030501;28;20433;-69
2024/04/04 08:40:00;;;;;;;9.03;6.30;;;;;;;9.43;100.00;100790.03;5044369;28;20462;-70
2024/04/04 08:42:27;;;;;;;9.80;7.17;;;;;;;9.57;100.00;100807.06;5030464;28;20803;-69
2024/04/04 08:44:53;;;;;;;9.60;6.17;;;;;;;8.88;100.00;100692.56;5030340;28;20267;-69
2024/04/04 08:47:20;;;;;;;10.70;7.10;;;;;;;9.65;100.00;100826.50;5046401;28;20435;-69
2024/04/04 08:49:47;;;;;;;10.53;7.00;;;;;;;9.68;100.00;100828.78;5029971;28;20447;-69
2024/04/04 08:52:16;;;;;;;16.10;6.97;;;;;;;9.41;100.00;100792.91;5030354;28;20445;-69
2024/04/04 08:54:41;;;;;;;10.03;7.37;;;;;;;9.53;100.00;100779.84;5031945;28;20468;-69
2024/04/04 08:57:10;;;;;;;11.03;6.67;;;;;;;9.54;100.00;100778.81;5046298;28;20566;-69
2024/04/04 08:59:35;;;;;;;9.70;6.50;;;;;;;9.73;100.00;100823.69;5049256;28;20214;-69
2024/04/04 09:02:01;;;;;;;10.87;6.20;;;;;;;9.71;100.00;100828.38;5046943;28;20860;-69
2024/04/04 09:04:29;;;;;;;12.50;7.37;;;;;;;9.09;100.00;100703.28;5049079;28;20192;-69
2024/04/04 09:06:55;;;;;;;11.20;6.50;;;;;;;9.06;100.00;100695.66;5044345;28;22761;-69
2024/04/04 09:09:21;;;;;;;9.10;6.10;;;;;;;9.85;100.00;100810.59;5048211;28;20505;-69
2024/04/04 09:11:47;;;;;;;8.70;6.10;;;;;;;9.82;100.00;100786.88;5025792;28;20966;-69
2024/04/04 09:14:15;;;;;;;9.70;6.43;;;;;;;9.36;100.00;100693.63;5047102;28;20440;-69
2024/04/04 09:16:42;;;;;;;9.00;6.57;;;;;;;10.03;100.00;100790.50;5030751;28;20479;-69
2024/04/04 09:19:13;;;;;;;11.70;6.67;;;;;;;9.88;100.00;100772.69;5046315;28;20430;-69
2024/04/04 09:21:39;;;;;;;9.27;6.27;;;;;;;10.11;100.00;100776.97;5030252;28;21246;-69
2024/04/04 09:24:08;;;;;;;11.50;6.83;;;;;;;9.27;100.00;100657.31;5029197;28;20438;-69
2024/04/04 09:26:37;;;;;;;12.10;6.97;;;;;;;10.11;100.00;100752.84;5028049;28;20510;-69
2024/04/04 09:29:06;;;;;;;11.83;7.43;;;;;;;10.06;100.00;100764.13;5047601;28;20437;-69
2024/04/04 09:31:36;;;;;;;14.13;7.50;;;;;;;9.33;100.00;100634.28;5029326;28;20825;-69
2024/04/04 09:34:03;;;;;;;12.40;8.50;;;;;;;10.06;100.00;100758.78;5046342;28;20895;-69
2024/04/04 09:36:30;;;;;;;11.77;7.07;;;;;;;9.54;100.00;100679.72;5028585;28;20495;-69
2024/04/04 09:38:59;;;;;;;11.43;7.20;;;;;;;9.51;100.00;100666.75;5043662;28;20506;-69
2024/04/04 09:41:27;;;;;;;9.90;7.40;;;;;;;9.60;100.00;100678.94;5047517;28;20576;-69
2024/04/04 09:43:56;;;;;;;12.40;7.13;;;;;;;10.26;100.00;100769.59;5047699;28;20445;-69
2024/04/04 09:46:22;;;;;;;10.80;7.40;;;;;;;9.89;100.00;100726.13;5026511;28;20470;-69
2024/04/04 09:48:49;;;;;;;9.70;6.53;;;;;;;10.46;100.00;100779.66;5029571;28;20866;-69
2024/04/04 09:51:16;;;;;;;12.10;6.87;;;;;;;10.44;100.00;100770.97;5046795;28;20262;-69
2024/04/04 09:53:41;;;;;;;10.23;7.27;;;;;;;9.84;100.00;100690.25;5045988;28;20529;-69
2024/04/04 09:56:08;;;;;;;13.00;7.30;;;;;;;9.64;100.00;100629.34;5048510;28;20995;-69
2024/04/04 09:58:34;;;;;;;12.40;7.20;;;;;;;9.76;100.00;100644.84;5025653;28;20193;-69
2024/04/04 10:01:16;;;;;;;9.57;7.00;;;;;;;9.75;100.00;100633.31;5027714;28;20473;-69
2024/04/04 10:03:50;;;;;;;13.83;7.03;;;;;;;10.59;100.00;100753.72;5047872;28;20431;-69
2024/04/04 10:06:45;;;;;;;10.47;6.73;;;;;;;10.53;100.00;100746.47;5047559;28;20430;-69
2024/04/04 10:09:22;;;;;;;12.20;6.70;;;;;;;10.48;100.00;100730.16;5008800;28;20529;-69
2024/04/04 10:11:49;;;;;;;10.17;6.70;;;;;;;9.92;100.00;100625.75;5043943;28;20454;-70
2024/04/04 10:14:17;;;;;;;11.10;6.63;;;;;;;9.91;100.00;100648.22;5028775;28;20445;-69
2024/04/04 10:16:55;;;;;;;10.30;6.00;;;;;;;9.80;100.00;100616.63;5027579;28;20440;-69
2024/04/04 10:19:22;;;;;;;8.83;6.17;;;;;;;10.00;100.00;100635.47;5026523;28;20497;-69
2024/04/04 10:21:49;;;;;;;9.33;5.70;;;;;;;10.56;100.00;100688.94;5043108;28;20458;-69
2024/04/04 10:24:41;;;;;;;9.83;5.40;;;;;;;10.73;100.00;100706.31;5029041;28;20874;-69
2024/04/04 10:27:08;;;;;;;8.10;5.40;;;;;;;10.31;100.00;100618.94;5044740;28;20504;-69
2024/04/04 10:29:38;;;;;;;9.90;5.60;;;;;;;10.71;100.00;100680.72;5027959;28;20603;-69
2024/04/04 10:32:08;;;;;;;8.90;5.40;;;;;;;10.26;100.00;100606.09;5028841;28;20442;-69
2024/04/04 10:34:34;;;;;;;9.13;5.50;;;;;;;10.56;100.00;100636.13;5029443;28;20872;-69
2024/04/04 10:36:59;;;;;;;7.83;5.23;;;;;;;10.74;100.00;100638.19;5045417;28;20738;-69
2024/04/04 10:39:25;;;;;;;9.57;5.50;;;;;;;10.85;100.00;100660.91;5027692;28;20207;-69
2024/04/04 10:41:53;;;;;;;8.10;4.87;;;;;;;10.26;100.00;100554.34;5044740;28;20203;-69
2024/04/04 10:44:20;;;;;;;10.60;5.77;;;;;;;10.35;100.00;100563.88;5046905;28;20183;-69
2024/04/04 10:46:50;;;;;;;9.83;5.33;;;;;;;11.12;100.00;100669.81;5024307;28;20442;-69
2024/04/04 10:49:19;;;;;;;9.77;5.40;;;;;;;11.21;100.00;100662.38;5026296;28;20430;-70
2024/04/04 10:51:53;;;;;;;8.60;4.83;;;;;;;11.21;100.00;100643.56;5046146;28;20464;-69
2024/04/04 10:54:20;;;;;;;8.53;4.37;;;;;;;11.19;100.00;100627.66;5025821;28;20818;-69
2024/04/04 10:56:47;;;;;;;7.53;4.27;;;;;;;10.61;100.00;100512.94;5045052;28;20438;-69
2024/04/04 10:59:15;;;;;;;8.60;3.60;;;;;;;10.41;100.00;100498.69;5046609;28;20422;-69
2024/04/04 11:01:43;;;;;;;7.30;3.90;;;;;;;10.61;100.00;100537.06;5031716;28;20453;-69
2024/04/04 11:04:10;;;;;;;9.93;4.40;;;;;;;10.38;100.00;100483.84;5045462;28;20426;-69
2024/04/04 11:06:36;;;;;;;7.47;3.67;;;;;;;11.17;100.00;100585.97;5029791;28;20945;-69
2024/04/04 11:09:10;;;;;;;8.50;4.10;;;;;;;10.60;100.00;100483.66;5045511;28;20434;-69
2024/04/04 11:11:36;;;;;;;8.00;4.20;;;;;;;10.32;100.00;100457.03;5029784;28;21263;-69
2024/04/04 11:14:03;;;;;;;8.80;3.90;;;;;;;11.10;100.00;100577.91;5027728;28;20456;-69
2024/04/04 11:16:29;;;;;;;8.47;4.20;;;;;;;10.46;100.00;100473.97;5047619;28;20430;-69